createdAt,value
2019-03-31T00:01:08.179Z,13.93
2019-03-31T00:03:31.166Z,14.17
2019-03-31T00:06:02.083Z,17.50
2019-03-31T00:08:32.997Z,14.27
2019-03-31T00:11:03.880Z,14.43
2019-03-31T00:13:34.722Z,17.77
2019-03-31T00:16:05.912Z,15.53
2019-03-31T00:18:36.858Z,16.57
2019-03-31T00:21:08.020Z,14.87
2019-03-31T00:23:39.010Z,15.10
2019-03-31T00:26:09.974Z,14.07
2019-03-31T00:28:40.820Z,15.40
2019-03-31T00:31:22.068Z,13.83
2019-03-31T00:33:46.693Z,17.27
2019-03-31T00:36:17.620Z,15.60
2019-03-31T00:38:48.505Z,15.10
2019-03-31T00:41:19.447Z,14.40
2019-03-31T00:43:50.358Z,15.97
2019-03-31T00:46:21.239Z,15.27
2019-03-31T00:48:52.117Z,16.27
2019-03-31T00:51:23.069Z,15.27
2019-03-31T00:53:53.915Z,15.97
2019-03-31T00:56:24.800Z,18.30
2019-03-31T00:58:55.625Z,15.00
2019-03-31T01:01:36.516Z,13.60
2019-03-31T01:04:01.287Z,14.97
2019-03-31T01:06:32.642Z,19.60
2019-03-31T01:09:06.648Z,13.43
2019-03-31T01:11:37.687Z,16.60
2019-03-31T01:14:08.757Z,13.40
2019-03-31T01:16:39.631Z,15.60
2019-03-31T01:19:11.167Z,15.40
2019-03-31T01:21:42.117Z,15.77
2019-03-31T01:24:13.170Z,16.43
2019-03-31T01:26:44.113Z,13.17
2019-03-31T01:29:15.461Z,16.07
2019-03-31T01:31:50.663Z,17.83
2019-03-31T01:34:19.479Z,17.77
2019-03-31T01:36:50.567Z,13.57
2019-03-31T01:39:22.650Z,16.70
2019-03-31T01:41:53.531Z,15.30
2019-03-31T01:44:24.451Z,15.17
2019-03-31T01:46:55.279Z,14.73
2019-03-31T01:49:26.247Z,14.27
2019-03-31T01:51:57.241Z,15.17
2019-03-31T01:54:28.439Z,16.67
2019-03-31T01:56:59.387Z,15.63
2019-03-31T01:59:30.250Z,15.87
2019-03-31T02:02:04.385Z,16.70
2019-03-31T02:04:33.737Z,16.00
2019-03-31T02:07:06.736Z,14.93
2019-03-31T02:09:38.033Z,17.90
2019-03-31T02:12:08.937Z,20.13
2019-03-31T02:14:39.779Z,16.93
2019-03-31T02:17:10.702Z,17.40
2019-03-31T02:19:41.588Z,20.23
2019-03-31T02:22:12.569Z,16.07
2019-03-31T02:24:43.645Z,16.27
2019-03-31T02:27:16.205Z,16.00
2019-03-31T02:29:47.124Z,16.40
2019-03-31T02:32:23.991Z,16.63
2019-03-31T02:34:50.644Z,15.73
2019-03-31T02:37:21.570Z,15.90
2019-03-31T02:39:52.502Z,20.30
2019-03-31T02:42:23.637Z,17.17
2019-03-31T02:44:54.478Z,14.90
2019-03-31T02:47:25.479Z,13.77
2019-03-31T02:49:56.364Z,18.90
2019-03-31T02:52:27.287Z,20.70
2019-03-31T02:54:58.314Z,17.60
2019-03-31T02:57:29.907Z,19.00
2019-03-31T03:00:01.839Z,17.03
2019-03-31T03:02:41.997Z,18.47
2019-03-31T03:05:18.492Z,16.73
2019-03-31T03:07:41.527Z,16.40
2019-03-31T03:10:12.507Z,15.63
2019-03-31T03:12:45.389Z,18.80
2019-03-31T03:15:19.427Z,16.80
2019-03-31T03:17:50.259Z,14.70
2019-03-31T03:20:21.140Z,20.03
2019-03-31T03:22:51.994Z,16.43
2019-03-31T03:25:22.927Z,14.40
2019-03-31T03:27:53.765Z,18.53
2019-03-31T03:30:24.710Z,15.53
2019-03-31T03:33:15.871Z,15.93
2019-03-31T03:35:28.570Z,18.07
2019-03-31T03:37:59.450Z,17.27
2019-03-31T03:40:30.322Z,17.27
2019-03-31T03:43:01.223Z,16.50
2019-03-31T03:45:32.213Z,16.83
2019-03-31T03:48:03.108Z,15.67
2019-03-31T03:50:34.013Z,18.23
2019-03-31T03:53:04.914Z,16.33
2019-03-31T03:55:35.878Z,16.80
2019-03-31T03:58:06.756Z,15.73
2019-03-31T04:00:37.702Z,17.50
2019-03-31T04:03:08.620Z,19.67
2019-03-31T04:05:39.482Z,16.77
2019-03-31T04:08:10.368Z,17.73
2019-03-31T04:10:47.202Z,15.43
2019-03-31T04:13:18.170Z,17.43
2019-03-31T04:15:49.070Z,15.53
2019-03-31T04:18:19.957Z,17.17
2019-03-31T04:20:50.856Z,15.70
2019-03-31T04:23:21.787Z,17.13
2019-03-31T04:25:52.673Z,18.30
2019-03-31T04:28:23.592Z,20.67
2019-03-31T04:30:54.470Z,16.07
2019-03-31T04:33:25.340Z,17.40
2019-03-31T04:35:56.239Z,17.00
2019-03-31T04:38:27.138Z,18.50
2019-03-31T04:40:58.013Z,17.57
2019-03-31T04:43:28.903Z,17.17
2019-03-31T04:45:59.836Z,17.03
2019-03-31T04:48:30.816Z,18.50
2019-03-31T04:51:01.750Z,16.30
2019-03-31T04:53:32.736Z,18.43
2019-03-31T04:56:03.726Z,16.30
2019-03-31T04:58:34.636Z,15.93
2019-03-31T05:01:05.656Z,16.47
2019-03-31T05:03:36.606Z,15.87
2019-03-31T05:06:07.485Z,19.53
2019-03-31T05:08:38.424Z,16.67
2019-03-31T05:11:09.379Z,17.53
2019-03-31T05:13:40.247Z,16.77
2019-03-31T05:16:11.386Z,15.80
2019-03-31T05:18:42.352Z,15.70
2019-03-31T05:21:13.228Z,20.00
2019-03-31T05:23:44.166Z,14.50
2019-03-31T05:26:15.173Z,16.43
2019-03-31T05:28:46.106Z,14.60
2019-03-31T05:31:17.067Z,18.53
2019-03-31T05:33:48.110Z,16.37
2019-03-31T05:36:19.051Z,17.40
2019-03-31T05:38:51.414Z,16.80
2019-03-31T05:41:22.314Z,17.17
2019-03-31T05:44:05.063Z,16.63
2019-03-31T05:46:25.831Z,18.57
2019-03-31T05:48:56.772Z,16.27
2019-03-31T05:51:27.663Z,15.07
2019-03-31T05:53:58.831Z,19.13
2019-03-31T05:56:29.895Z,14.40
2019-03-31T05:59:00.757Z,16.27
2019-03-31T06:01:31.672Z,18.47
2019-03-31T06:04:02.615Z,16.17
2019-03-31T06:06:36.901Z,14.70
2019-03-31T06:09:06.793Z,16.37
2019-03-31T06:11:37.675Z,15.43
2019-03-31T06:14:08.522Z,16.53
2019-03-31T06:16:39.597Z,14.47
2019-03-31T06:19:10.535Z,13.67
2019-03-31T06:21:41.622Z,15.53
2019-03-31T06:24:12.518Z,14.77
2019-03-31T06:26:43.489Z,15.60
2019-03-31T06:29:14.364Z,14.17
2019-03-31T06:31:45.305Z,14.90
2019-03-31T06:34:17.889Z,14.37
2019-03-31T06:36:48.899Z,15.63
2019-03-31T06:39:19.804Z,17.57
2019-03-31T06:41:50.780Z,13.67
2019-03-31T06:44:21.777Z,13.60
2019-03-31T06:46:52.632Z,14.07
2019-03-31T06:49:30.703Z,14.20
2019-03-31T06:52:01.727Z,14.00
2019-03-31T06:54:32.845Z,14.70
2019-03-31T06:57:07.174Z,16.83
2019-03-31T06:59:41.091Z,15.50
2019-03-31T07:02:18.200Z,15.37
2019-03-31T07:05:00.942Z,14.27
2019-03-31T07:07:24.749Z,14.97
2019-03-31T07:09:55.645Z,13.63
2019-03-31T07:12:26.638Z,14.00
2019-03-31T07:14:57.719Z,15.30
2019-03-31T07:17:30.154Z,15.33
2019-03-31T07:20:05.252Z,15.03
2019-03-31T07:22:36.477Z,15.03
2019-03-31T07:25:09.721Z,14.90
2019-03-31T07:27:40.711Z,13.73
2019-03-31T07:30:14.715Z,14.77
2019-03-31T07:32:48.737Z,16.43
2019-03-31T07:35:19.703Z,13.73
2019-03-31T07:37:52.138Z,14.80
2019-03-31T07:40:25.368Z,16.17
2019-03-31T07:42:56.537Z,15.73
2019-03-31T07:45:27.409Z,14.90
2019-03-31T07:47:58.384Z,16.17
2019-03-31T07:50:32.266Z,17.73
2019-03-31T07:53:03.170Z,16.07
2019-03-31T07:55:34.580Z,13.90
2019-03-31T07:58:06.315Z,14.47
2019-03-31T08:00:38.660Z,14.37
2019-03-31T08:03:09.624Z,16.90
2019-03-31T08:05:40.538Z,19.37
2019-03-31T08:08:11.402Z,15.50
2019-03-31T08:10:43.973Z,15.47
2019-03-31T08:13:19.371Z,16.93
2019-03-31T08:15:50.329Z,14.20
2019-03-31T08:18:21.856Z,17.43
2019-03-31T08:20:52.923Z,13.47
2019-03-31T08:23:25.601Z,14.90
2019-03-31T08:25:56.502Z,14.33
2019-03-31T08:28:27.377Z,14.77
2019-03-31T08:31:00.077Z,17.10
2019-03-31T08:33:31.050Z,16.93
2019-03-31T08:36:02.036Z,14.53
2019-03-31T08:38:33.156Z,14.30
2019-03-31T08:41:04.218Z,13.87
2019-03-31T08:43:35.126Z,14.13
2019-03-31T08:46:06.075Z,13.73
2019-03-31T08:48:37.051Z,14.73
2019-03-31T08:51:07.934Z,16.13
2019-03-31T08:53:39.104Z,18.33
2019-03-31T08:56:10.014Z,15.23
2019-03-31T08:58:41.113Z,17.87
2019-03-31T09:01:13.747Z,17.73
2019-03-31T09:03:44.806Z,14.93
2019-03-31T09:06:15.794Z,16.40
2019-03-31T09:08:46.826Z,15.67
2019-03-31T09:11:17.707Z,14.80
2019-03-31T09:13:48.778Z,15.83
2019-03-31T09:16:19.646Z,16.73
2019-03-31T09:18:50.554Z,17.47
2019-03-31T09:21:21.475Z,15.40
2019-03-31T09:23:52.430Z,17.13
2019-03-31T09:26:23.378Z,15.63
2019-03-31T09:28:54.261Z,15.17
2019-03-31T09:31:25.153Z,16.03
2019-03-31T09:33:56.066Z,14.90
2019-03-31T09:36:26.957Z,15.43
2019-03-31T09:38:57.835Z,16.00
2019-03-31T09:41:28.690Z,16.90
2019-03-31T09:43:59.591Z,15.43
2019-03-31T09:46:30.554Z,16.17
2019-03-31T09:49:01.494Z,17.30
2019-03-31T09:51:32.492Z,18.50
2019-03-31T09:54:03.514Z,17.83
2019-03-31T09:56:34.491Z,14.70
2019-03-31T09:59:08.077Z,16.93
2019-03-31T10:01:38.941Z,15.10
2019-03-31T10:04:09.852Z,15.10
2019-03-31T10:06:42.391Z,14.83
2019-03-31T10:09:13.523Z,16.47
2019-03-31T10:11:44.445Z,15.37
2019-03-31T10:14:15.397Z,16.07
2019-03-31T10:16:46.415Z,17.50
2019-03-31T10:19:17.392Z,14.07
2019-03-31T10:21:48.334Z,15.27
2019-03-31T10:24:19.375Z,14.47
2019-03-31T10:26:50.326Z,15.07
2019-03-31T10:29:21.437Z,15.85
2019-03-31T10:31:52.403Z,14.03
2019-03-31T10:34:23.493Z,11.95
2019-03-31T10:36:54.489Z,12.87
2019-03-31T10:39:25.471Z,13.00
2019-03-31T10:41:56.762Z,15.43
2019-03-31T10:44:27.810Z,11.95
2019-03-31T10:47:02.425Z,11.73
2019-03-31T10:49:33.500Z,12.43
2019-03-31T10:52:05.547Z,14.28
2019-03-31T10:54:36.491Z,13.33
2019-03-31T10:57:07.552Z,11.55
2019-03-31T10:59:38.519Z,10.60
2019-03-31T11:02:09.467Z,11.40
2019-03-31T11:04:40.459Z,10.63
2019-03-31T11:07:11.635Z,13.68
2019-03-31T11:09:42.668Z,12.05
2019-03-31T11:12:13.620Z,13.18
2019-03-31T11:14:44.626Z,11.30
2019-03-31T11:17:15.555Z,12.30
2019-03-31T11:19:46.560Z,11.03
2019-03-31T11:22:19.130Z,12.85
2019-03-31T11:24:50.182Z,13.22
2019-03-31T11:27:21.208Z,10.63
2019-03-31T11:29:53.831Z,11.45
2019-03-31T11:32:24.845Z,11.50
2019-03-31T11:34:57.326Z,11.48
2019-03-31T11:37:28.486Z,11.38
2019-03-31T11:39:59.444Z,10.10
2019-03-31T11:42:30.452Z,10.50
2019-03-31T11:45:01.411Z,9.63
2019-03-31T11:47:32.408Z,10.30
2019-03-31T11:50:04.869Z,12.05
2019-03-31T11:52:36.370Z,11.00
2019-03-31T11:55:08.942Z,10.82
2019-03-31T11:57:39.974Z,10.55
2019-03-31T12:00:12.994Z,9.95
2019-03-31T12:02:44.092Z,12.40
2019-03-31T12:05:15.256Z,11.12
2019-03-31T12:07:47.475Z,10.38
2019-03-31T12:10:19.942Z,10.13
2019-03-31T12:12:51.367Z,10.80
2019-03-31T12:15:22.301Z,11.47
2019-03-31T12:17:53.249Z,12.63
2019-03-31T12:20:24.294Z,7.43
2019-03-31T12:22:55.307Z,6.83
2019-03-31T12:25:26.271Z,8.03
2019-03-31T12:27:57.147Z,7.17
2019-03-31T12:30:28.587Z,5.97
2019-03-31T12:32:59.674Z,6.22
2019-03-31T12:35:30.668Z,5.58
2019-03-31T12:38:01.634Z,7.28
2019-03-31T12:40:34.554Z,4.90
2019-03-31T12:43:06.447Z,6.75
2019-03-31T12:45:37.552Z,3.65
2019-03-31T12:48:08.502Z,4.35
2019-03-31T12:50:39.456Z,3.90
2019-03-31T12:53:10.455Z,4.60
2019-03-31T12:55:41.536Z,5.33
2019-03-31T12:58:12.550Z,4.25
2019-03-31T13:00:43.721Z,7.58
2019-03-31T13:03:16.302Z,4.95
2019-03-31T13:05:47.595Z,6.33
2019-03-31T13:08:18.666Z,5.12
2019-03-31T13:10:54.211Z,5.08
2019-03-31T13:13:25.267Z,4.67
2019-03-31T13:15:56.584Z,4.80
2019-03-31T13:18:28.165Z,4.00
2019-03-31T13:20:59.370Z,5.03
2019-03-31T13:23:30.413Z,4.00
2019-03-31T13:26:01.399Z,4.67
2019-03-31T13:28:32.428Z,4.28
2019-03-31T13:31:03.374Z,4.72
2019-03-31T13:33:34.499Z,5.33
2019-03-31T13:36:07.184Z,3.30
2019-03-31T13:38:38.199Z,3.87
2019-03-31T13:41:09.235Z,3.17
2019-03-31T13:43:40.405Z,3.98
2019-03-31T13:46:11.423Z,4.03
2019-03-31T13:48:42.483Z,3.62
2019-03-31T13:51:13.493Z,3.62
2019-03-31T13:53:44.440Z,3.72
2019-03-31T13:56:16.120Z,3.70
2019-03-31T13:58:52.310Z,6.40
2019-03-31T14:01:20.224Z,6.25
2019-03-31T14:03:51.150Z,3.90
2019-03-31T14:06:22.175Z,4.67
2019-03-31T14:08:53.193Z,5.53
2019-03-31T14:11:24.272Z,6.20
2019-03-31T14:13:56.154Z,5.55
2019-03-31T14:16:29.080Z,5.42
2019-03-31T14:19:00.074Z,5.60
2019-03-31T14:21:31.010Z,6.22
2019-03-31T14:24:01.934Z,5.97
2019-03-31T14:26:33.092Z,8.65
2019-03-31T14:29:04.132Z,5.43
2019-03-31T14:31:35.055Z,6.43
2019-03-31T14:34:05.932Z,5.63
2019-03-31T14:36:36.824Z,5.50
2019-03-31T14:39:08.789Z,6.70
2019-03-31T14:41:39.780Z,7.80
2019-03-31T14:44:10.724Z,6.37
2019-03-31T14:46:43.344Z,5.03
2019-03-31T14:49:14.464Z,6.30
2019-03-31T14:51:45.612Z,6.43
2019-03-31T14:54:16.545Z,5.33
2019-03-31T14:56:47.526Z,7.80
2019-03-31T14:59:18.416Z,6.53
2019-03-31T15:01:49.238Z,6.07
2019-03-31T15:04:19.095Z,5.17
2019-03-31T15:06:49.512Z,5.03
2019-03-31T15:09:20.414Z,6.17
2019-03-31T15:11:51.223Z,7.27
2019-03-31T15:14:22.094Z,6.90
2019-03-31T15:16:53.037Z,6.27
2019-03-31T15:19:23.898Z,6.30
2019-03-31T15:21:54.929Z,5.73
2019-03-31T15:24:26.017Z,6.20
2019-03-31T15:26:57.066Z,5.70
2019-03-31T15:29:27.908Z,6.05
2019-03-31T15:31:58.907Z,6.43
2019-03-31T15:34:29.848Z,5.40
2019-03-31T15:37:00.863Z,5.37
2019-03-31T15:39:31.795Z,5.47
2019-03-31T15:42:03.005Z,5.87
2019-03-31T15:44:33.867Z,5.83
2019-03-31T15:47:04.813Z,5.97
2019-03-31T15:49:37.398Z,5.40
2019-03-31T15:52:26.903Z,4.47
2019-03-31T15:55:10.296Z,5.23
2019-03-31T15:57:42.885Z,5.10
2019-03-31T16:00:14.789Z,5.07
2019-03-31T16:02:45.775Z,5.07
2019-03-31T16:05:16.703Z,5.60
2019-03-31T16:07:48.461Z,6.10
2019-03-31T16:10:26.196Z,5.27
2019-03-31T16:12:57.219Z,8.67
2019-03-31T16:15:30.003Z,4.93
2019-03-31T16:18:11.013Z,6.10
2019-03-31T16:20:54.408Z,6.07
2019-03-31T16:23:36.173Z,7.83
2019-03-31T16:26:13.085Z,9.30
2019-03-31T16:28:45.807Z,8.33
2019-03-31T16:31:16.959Z,11.07
2019-03-31T16:33:49.395Z,8.53
2019-03-31T16:44:59.185Z,8.43
2019-03-31T16:49:25.214Z,9.30
2019-03-31T17:01:03.035Z,9.43
2019-03-31T17:02:04.510Z,9.50
2019-03-31T17:04:51.140Z,9.40
2019-03-31T17:07:26.847Z,9.50
2019-03-31T17:10:09.779Z,12.17
2019-03-31T17:12:51.566Z,16.30
2019-03-31T17:15:25.659Z,17.37
2019-03-31T17:17:56.611Z,16.47
2019-03-31T17:20:27.460Z,17.43
2019-03-31T17:22:58.387Z,16.27
2019-03-31T17:25:29.265Z,17.30
2019-03-31T17:28:00.166Z,20.53
2019-03-31T17:30:31.040Z,21.70
2019-03-31T17:33:01.924Z,21.33
2019-03-31T17:35:32.913Z,23.47
2019-03-31T17:38:04.156Z,25.07
2019-03-31T17:40:35.183Z,26.07
2019-03-31T17:43:06.084Z,27.23
2019-03-31T17:45:37.026Z,27.33
2019-03-31T17:48:07.889Z,26.63
2019-03-31T17:50:38.784Z,27.87
2019-03-31T17:53:10.654Z,27.40
2019-03-31T17:55:41.807Z,27.93
2019-03-31T17:58:12.932Z,27.60
2019-03-31T18:00:43.882Z,27.03
2019-03-31T18:03:15.717Z,28.13
2019-03-31T18:05:47.003Z,27.77
2019-03-31T18:08:18.032Z,29.67
2019-03-31T18:10:49.462Z,28.33
2019-03-31T18:13:20.364Z,28.63
2019-03-31T18:15:51.317Z,30.13
2019-03-31T18:18:22.346Z,30.43
2019-03-31T18:20:53.415Z,27.77
2019-03-31T18:23:24.396Z,28.73
2019-03-31T18:25:55.440Z,29.00
2019-03-31T18:28:26.540Z,31.80
2019-03-31T18:30:57.649Z,30.20
2019-03-31T18:33:37.091Z,29.83
2019-03-31T18:36:09.818Z,29.70
2019-03-31T18:38:42.481Z,28.83
2019-03-31T18:41:14.941Z,29.73
2019-03-31T18:44:02.443Z,28.23
2019-03-31T18:46:53.723Z,28.33
2019-03-31T18:49:27.647Z,28.63
2019-03-31T18:52:33.040Z,29.07
2019-03-31T18:55:23.334Z,26.00
2019-03-31T18:57:56.733Z,26.87
2019-03-31T19:00:52.747Z,28.17
2019-03-31T19:03:47.454Z,31.10
2019-03-31T19:06:56.786Z,25.00
2019-03-31T19:09:35.381Z,26.10
2019-03-31T19:15:50.235Z,24.70
2019-03-31T19:36:34.142Z,23.97
2019-03-31T19:39:21.429Z,27.17
2019-03-31T19:42:08.435Z,25.17
2019-03-31T19:44:59.095Z,24.30
2019-03-31T19:47:31.880Z,27.53
2019-03-31T19:50:20.891Z,25.63
2019-03-31T19:53:02.479Z,26.17
2019-03-31T19:55:40.779Z,23.43
2019-03-31T19:58:19.284Z,27.10
2019-03-31T20:00:54.835Z,23.17
2019-03-31T20:03:39.311Z,24.27
2019-03-31T20:06:20.981Z,26.40
2019-03-31T20:08:53.581Z,25.63
2019-03-31T20:11:31.947Z,23.63
2019-03-31T20:14:20.962Z,23.37
2019-03-31T20:17:05.371Z,26.03
2019-03-31T20:19:43.503Z,26.43
2019-03-31T20:22:27.529Z,25.27
2019-03-31T20:25:05.473Z,26.57
2019-03-31T20:27:49.863Z,26.60
2019-03-31T20:30:38.450Z,26.67
2019-03-31T20:33:27.117Z,29.33
2019-03-31T20:36:05.334Z,28.63
2019-03-31T20:38:42.929Z,30.73
2019-03-31T20:41:18.417Z,24.93
2019-03-31T20:43:54.204Z,27.63
2019-03-31T20:46:25.408Z,27.33
2019-03-31T20:48:59.610Z,27.20
2019-03-31T20:51:31.941Z,26.97
2019-03-31T20:54:02.883Z,27.10
2019-03-31T20:56:33.859Z,30.27
2019-03-31T20:59:04.964Z,25.43
2019-03-31T21:01:35.913Z,28.10
2019-03-31T21:04:06.809Z,26.07
2019-03-31T21:06:37.781Z,26.87
2019-03-31T21:09:09.846Z,26.17
2019-03-31T21:11:40.826Z,25.87
2019-03-31T21:14:11.766Z,27.63
2019-03-31T21:16:42.592Z,30.83
2019-03-31T21:19:13.693Z,25.40
2019-03-31T21:21:44.505Z,27.80
2019-03-31T21:24:15.422Z,27.17
2019-03-31T21:26:46.424Z,29.43
2019-03-31T21:29:17.477Z,26.33
2019-03-31T21:31:48.310Z,28.53
2019-03-31T21:34:19.341Z,35.03
2019-03-31T21:36:50.211Z,27.53
2019-03-31T21:39:24.590Z,29.40
2019-03-31T21:41:55.448Z,29.87
2019-03-31T21:44:26.485Z,30.43
2019-03-31T21:46:57.616Z,28.93
2019-03-31T21:49:31.954Z,29.67
2019-03-31T21:52:06.287Z,29.30
2019-03-31T21:54:38.388Z,30.23
2019-03-31T21:57:09.313Z,30.70
2019-03-31T21:59:40.388Z,32.33
2019-03-31T22:02:28.653Z,32.27
2019-03-31T22:05:08.883Z,29.00
2019-03-31T22:07:46.016Z,32.60
2019-03-31T22:10:38.122Z,35.77
2019-03-31T22:13:18.736Z,29.50
2019-03-31T22:15:57.026Z,29.90
2019-03-31T22:19:14.587Z,34.23
2019-03-31T22:22:08.474Z,30.27
2019-03-31T22:24:43.770Z,31.13
2019-03-31T22:27:24.140Z,34.30
2019-03-31T22:29:56.744Z,31.67
2019-03-31T22:32:27.885Z,32.73
2019-03-31T22:34:58.798Z,32.23
2019-03-31T22:37:29.828Z,31.87
2019-03-31T22:40:12.244Z,33.37
2019-03-31T22:42:44.886Z,32.63
2019-03-31T22:45:17.405Z,33.03
2019-03-31T22:47:48.298Z,28.60
2019-03-31T22:50:19.268Z,35.50
2019-03-31T22:52:50.117Z,33.20
2019-03-31T22:55:22.531Z,32.87
2019-03-31T22:57:53.406Z,35.00
2019-03-31T23:00:25.971Z,35.83
2019-03-31T23:02:56.853Z,34.00
2019-03-31T23:05:27.761Z,36.83
2019-03-31T23:07:58.697Z,36.37
2019-03-31T23:10:29.619Z,38.10
2019-03-31T23:13:00.493Z,34.73
2019-03-31T23:15:31.393Z,34.43
2019-03-31T23:18:02.275Z,34.07
2019-03-31T23:20:33.700Z,35.87
2019-03-31T23:23:04.570Z,38.33
2019-03-31T23:25:35.476Z,34.93
2019-03-31T23:28:09.325Z,36.87
2019-03-31T23:30:40.238Z,35.90
2019-03-31T23:33:11.077Z,36.73
2019-03-31T23:35:41.912Z,37.63
2019-03-31T23:38:12.818Z,34.83
2019-03-31T23:40:43.775Z,35.13
2019-03-31T23:43:14.686Z,37.57
2019-03-31T23:45:45.526Z,35.70
2019-03-31T23:48:16.361Z,33.67
2019-03-31T23:50:47.269Z,36.43
2019-03-31T23:53:18.115Z,40.43
2019-03-31T23:55:48.995Z,39.10
2019-03-31T23:58:21.375Z,37.53
